Time;durP1;ratioP1;P1;durP2;ratioP2;P2;SDS_P1;SDS_P2;PMS_P1;PMS_P2;Temp;Humidity;BMP_temperature;BMP_pressure;BME280_temperature;BME280_humidity;BME280_pressure;Samples;Min_cycle;Max_cycle;Signal;HPM_P1;HPM_P2
2023/07/20 00:00:53;;;;;;;0.63;0.40;;;15.60;99.90;;;;;;6338646;22;20456;-82
2023/07/20 00:03:23;;;;;;;1.50;0.40;;;15.60;99.90;;;;;;6338452;22;20085;-83
2023/07/20 00:05:49;;;;;;;0.43;0.32;;;15.60;99.90;;;;;;6310319;22;20096;-83
2023/07/20 00:08:18;;;;;;;0.77;0.30;;;15.60;99.90;;;;;;6337836;22;20014;-82
2023/07/20 00:10:44;;;;;;;0.57;0.38;;;15.60;99.90;;;;;;6338430;22;20038;-83
2023/07/20 00:13:15;;;;;;;0.40;0.28;;;15.60;99.90;;;;;;6310294;22;20460;-82
2023/07/20 00:15:41;;;;;;;1.23;0.32;;;15.50;99.90;;;;;;6310347;22;20018;-82
2023/07/20 00:18:07;;;;;;;0.85;0.30;;;15.50;99.90;;;;;;6338094;22;20022;-83
2023/07/20 00:20:33;;;;;;;0.43;0.30;;;15.50;99.90;;;;;;6310805;22;20019;-82
2023/07/20 00:22:59;;;;;;;0.60;0.30;;;15.50;99.90;;;;;;6340426;22;20018;-83
2023/07/20 00:25:25;;;;;;;0.45;0.40;;;15.50;99.90;;;;;;6340427;22;20469;-83
2023/07/20 00:27:51;;;;;;;0.35;0.35;;;15.50;99.90;;;;;;6312269;22;20014;-82
2023/07/20 00:30:18;;;;;;;1.17;0.30;;;15.40;99.90;;;;;;6339641;22;20015;-82
2023/07/20 00:32:44;;;;;;;0.30;0.30;;;15.40;99.90;;;;;;6339971;22;20018;-82
2023/07/20 00:35:11;;;;;;;2.05;0.40;;;15.40;99.90;;;;;;6340233;22;20370;-82
2023/07/20 00:37:39;;;;;;;0.43;0.30;;;15.40;99.90;;;;;;6339940;22;20015;-83
2023/07/20 00:40:07;;;;;;;0.50;0.35;;;15.40;99.90;;;;;;6339890;22;20042;-83
2023/07/20 00:42:33;;;;;;;0.32;0.20;;;15.30;99.90;;;;;;6339923;22;20015;-83
2023/07/20 00:45:00;;;;;;;0.45;0.30;;;15.30;99.90;;;;;;6312161;22;20007;-82
2023/07/20 00:47:26;;;;;;;0.57;0.40;;;15.30;99.90;;;;;;6340138;22;20022;-82
2023/07/20 00:49:53;;;;;;;0.57;0.38;;;15.30;99.90;;;;;;6312134;22;20042;-83
2023/07/20 00:52:21;;;;;;;0.85;0.43;;;15.20;99.90;;;;;;6339687;22;20086;-82
2023/07/20 00:54:47;;;;;;;0.45;0.30;;;15.10;99.90;;;;;;6312105;22;20023;-83
2023/07/20 00:57:20;;;;;;;1.92;0.40;;;15.10;99.90;;;;;;6312435;22;20046;-83
2023/07/20 00:59:46;;;;;;;0.60;0.40;;;14.90;99.90;;;;;;6339700;22;20019;-82
2023/07/20 01:02:12;;;;;;;0.73;0.43;;;15.00;99.90;;;;;;6312538;22;20018;-83
2023/07/20 01:04:38;;;;;;;0.30;0.30;;;14.90;99.90;;;;;;6311828;22;20350;-82
2023/07/20 01:07:14;;;;;;;1.67;0.43;;;14.90;99.90;;;;;;6339592;22;20345;-82
2023/07/20 01:09:44;;;;;;;0.52;0.43;;;14.90;99.90;;;;;;6340064;22;20046;-83
2023/07/20 01:12:30;;;;;;;1.55;0.40;;;14.80;99.90;;;;;;6311978;22;20044;-83
2023/07/20 01:14:56;;;;;;;0.30;0.30;;;14.80;99.90;;;;;;6339558;22;20426;-83
2023/07/20 01:17:23;;;;;;;0.80;0.40;;;14.70;99.90;;;;;;6339558;22;20017;-82
2023/07/20 01:19:49;;;;;;;0.40;0.40;;;14.70;99.90;;;;;;6311978;22;20010;-83
2023/07/20 01:22:37;;;;;;;0.63;0.50;;;14.60;99.90;;;;;;6339272;22;20148;-82
2023/07/20 01:25:36;;;;;;;0.75;0.38;;;14.60;99.90;;;;;;6312095;22;20463;-83
2023/07/20 01:28:26;;;;;;;0.70;0.40;;;14.50;99.90;;;;;;6339246;22;20444;-82
2023/07/20 01:30:59;;;;;;;0.55;0.30;;;14.50;99.90;;;;;;6286015;22;20489;-83
2023/07/20 01:33:26;;;;;;;0.30;0.30;;;14.40;99.90;;;;;;6339155;22;20022;-82
2023/07/20 01:35:56;;;;;;;1.23;0.35;;;14.40;99.90;;;;;;6311703;22;20007;-83
2023/07/20 01:38:23;;;;;;;3.33;0.60;;;14.20;99.90;;;;;;6311379;22;20018;-84
2023/07/20 01:40:49;;;;;;;0.35;0.30;;;14.20;99.90;;;;;;6339784;22;20050;-83
2023/07/20 01:43:16;;;;;;;0.93;0.40;;;14.20;99.90;;;;;;6339002;22;20019;-83
2023/07/20 01:45:42;;;;;;;0.35;0.30;;;14.10;99.90;;;;;;6339402;22;20330;-82
2023/07/20 01:48:07;;;;;;;0.75;0.30;;;14.10;99.90;;;;;;6339246;22;20030;-82
2023/07/20 01:50:34;;;;;;;1.15;0.40;;;14.10;99.90;;;;;;6339206;22;20017;-83
2023/07/20 01:53:01;;;;;;;0.70;0.40;;;14.00;99.90;;;;;;6311812;22;20041;-83
2023/07/20 01:55:26;;;;;;;0.75;0.40;;;14.00;99.90;;;;;;6339339;22;20010;-82
2023/07/20 01:57:53;;;;;;;1.48;0.40;;;13.90;99.90;;;;;;6285580;22;20510;-82
2023/07/20 02:00:23;;;;;;;0.70;0.40;;;13.90;99.90;;;;;;6311356;22;20015;-82
2023/07/20 02:02:50;;;;;;;0.38;0.30;;;13.80;99.90;;;;;;6338908;22;20014;-83
2023/07/20 02:05:16;;;;;;;0.57;0.30;;;13.80;99.90;;;;;;6311641;22;20014;-82
2023/07/20 02:07:42;;;;;;;0.30;0.30;;;13.80;99.90;;;;;;6338919;22;20094;-82
2023/07/20 02:10:08;;;;;;;0.65;0.38;;;13.80;99.90;;;;;;6338905;22;20461;-83
2023/07/20 02:12:34;;;;;;;0.30;0.30;;;13.70;99.90;;;;;;6339263;22;20080;-83
2023/07/20 02:15:01;;;;;;;1.33;0.60;;;13.70;99.90;;;;;;6339111;22;20323;-82
2023/07/20 02:17:27;;;;;;;0.40;0.40;;;13.70;99.90;;;;;;6339181;22;20015;-82
2023/07/20 02:19:53;;;;;;;0.40;0.30;;;13.70;99.90;;;;;;6339217;22;20435;-82
2023/07/20 02:22:19;;;;;;;0.45;0.30;;;13.70;99.90;;;;;;6338961;22;20015;-82
2023/07/20 02:24:44;;;;;;;1.85;0.40;;;13.60;99.90;;;;;;6338775;22;20022;-82
2023/07/20 02:27:10;;;;;;;0.77;0.43;;;13.60;99.90;;;;;;6338892;22;20029;-82
2023/07/20 02:29:36;;;;;;;1.08;0.40;;;13.60;99.90;;;;;;6311201;22;20022;-82
2023/07/20 02:32:02;;;;;;;0.52;0.40;;;13.60;99.90;;;;;;6311092;22;20018;-82
2023/07/20 02:34:28;;;;;;;2.40;0.32;;;13.50;99.90;;;;;;6339151;22;20117;-82
2023/07/20 02:36:56;;;;;;;1.15;0.38;;;13.50;99.90;;;;;;6338690;22;20434;-83
2023/07/20 02:39:22;;;;;;;1.23;0.40;;;13.50;99.90;;;;;;6339077;22;20015;-82
2023/07/20 02:41:48;;;;;;;0.43;0.30;;;13.40;99.90;;;;;;6311268;22;20073;-83
2023/07/20 02:44:16;;;;;;;0.75;0.40;;;13.40;99.90;;;;;;6338963;22;20010;-83
2023/07/20 02:46:44;;;;;;;1.15;0.40;;;13.30;99.90;;;;;;6310892;22;20587;-82
2023/07/20 02:49:10;;;;;;;1.77;0.43;;;13.30;99.90;;;;;;6338853;22;20011;-82
2023/07/20 02:51:36;;;;;;;2.47;0.50;;;13.30;99.90;;;;;;6338764;22;20014;-82
2023/07/20 02:54:03;;;;;;;0.50;0.40;;;13.20;99.90;;;;;;6311002;22;20076;-82
2023/07/20 02:56:29;;;;;;;1.23;0.50;;;13.00;99.90;;;;;;6338975;22;20090;-83
2023/07/20 02:58:55;;;;;;;1.05;0.40;;;13.10;99.90;;;;;;6311162;22;20057;-83
2023/07/20 03:01:20;;;;;;;1.67;0.40;;;13.10;99.90;;;;;;6339149;22;20326;-82
2023/07/20 03:03:46;;;;;;;0.40;0.30;;;13.00;99.90;;;;;;6311233;22;20018;-82
2023/07/20 03:06:14;;;;;;;0.30;0.30;;;13.00;99.90;;;;;;6310863;22;20015;-82
2023/07/20 03:08:41;;;;;;;0.40;0.40;;;13.00;99.90;;;;;;6338175;22;20018;-82
2023/07/20 03:11:07;;;;;;;0.30;0.30;;;12.90;99.90;;;;;;6338619;22;20446;-82
2023/07/20 03:13:33;;;;;;;0.50;0.40;;;12.90;99.90;;;;;;6338670;22;20019;-82
2023/07/20 03:15:59;;;;;;;2.78;0.40;;;12.90;99.90;;;;;;6338818;22;20468;-82
2023/07/20 03:18:24;;;;;;;5.57;0.95;;;12.80;99.90;;;;;;6310473;22;20314;-82
2023/07/20 03:20:50;;;;;;;1.05;0.40;;;12.80;99.90;;;;;;6338457;22;20009;-82
2023/07/20 03:23:16;;;;;;;2.13;0.40;;;12.70;99.90;;;;;;6338426;22;20441;-82
2023/07/20 03:25:42;;;;;;;1.52;0.60;;;12.70;99.90;;;;;;6310333;22;20021;-82
2023/07/20 03:28:08;;;;;;;0.40;0.40;;;12.70;99.90;;;;;;6337737;22;20019;-82
2023/07/20 03:30:35;;;;;;;0.52;0.40;;;12.60;99.90;;;;;;6338533;22;20007;-82
2023/07/20 03:33:00;;;;;;;0.50;0.40;;;12.60;99.90;;;;;;6310865;22;20018;-83
2023/07/20 03:35:26;;;;;;;1.30;0.43;;;12.60;99.90;;;;;;6310813;22;20453;-83
2023/07/20 03:37:52;;;;;;;0.57;0.50;;;12.60;99.90;;;;;;6310512;22;20014;-83
2023/07/20 03:40:18;;;;;;;2.42;0.50;;;12.60;99.90;;;;;;6310782;22;20061;-82
2023/07/20 03:42:43;;;;;;;2.15;0.50;;;12.50;99.90;;;;;;6310401;22;20023;-82
2023/07/20 03:45:09;;;;;;;1.95;0.43;;;12.50;99.90;;;;;;6284670;22;20019;-82
2023/07/20 03:47:35;;;;;;;0.50;0.40;;;12.50;99.90;;;;;;6338512;22;20057;-82
2023/07/20 03:50:01;;;;;;;0.43;0.40;;;12.60;99.90;;;;;;6338410;22;20015;-82
2023/07/20 03:52:27;;;;;;;0.40;0.40;;;12.60;99.90;;;;;;6338286;22;20097;-83
2023/07/20 03:54:52;;;;;;;0.70;0.40;;;12.60;99.90;;;;;;6310383;22;20018;-82
2023/07/20 03:57:18;;;;;;;0.70;0.50;;;12.60;99.90;;;;;;6337975;22;20022;-84
2023/07/20 03:59:48;;;;;;;0.85;0.52;;;12.60;99.90;;;;;;6338464;22;20018;-82
2023/07/20 04:02:14;;;;;;;0.60;0.55;;;12.60;99.90;;;;;;6338223;22;20022;-83
2023/07/20 04:04:40;;;;;;;4.63;0.88;;;12.60;99.90;;;;;;6338392;22;20018;-82
2023/07/20 04:07:07;;;;;;;2.35;0.70;;;12.70;99.90;;;;;;6310706;22;20049;-83
2023/07/20 04:09:33;;;;;;;1.13;0.47;;;12.70;99.90;;;;;;6338618;22;20026;-81
2023/07/20 04:11:59;;;;;;;1.35;0.70;;;12.70;99.90;;;;;;6338074;22;20011;-82
2023/07/20 04:14:25;;;;;;;2.47;0.50;;;12.60;99.90;;;;;;6310661;22;20048;-82
2023/07/20 04:16:51;;;;;;;1.33;0.45;;;12.70;99.90;;;;;;6338426;22;20405;-82
2023/07/20 04:19:17;;;;;;;1.40;0.57;;;12.70;99.90;;;;;;6337878;22;20019;-82
2023/07/20 04:21:43;;;;;;;0.90;0.57;;;12.80;99.90;;;;;;6310404;22;20337;-83
2023/07/20 04:24:09;;;;;;;1.10;0.45;;;12.80;99.90;;;;;;6337561;22;20338;-84
2023/07/20 04:26:36;;;;;;;1.40;0.50;;;12.80;99.90;;;;;;6338130;22;20018;-83
2023/07/20 04:29:03;;;;;;;2.35;0.40;;;12.90;99.90;;;;;;6338153;22;20023;-82
2023/07/20 04:31:32;;;;;;;0.70;0.50;;;12.90;99.90;;;;;;6310767;22;20014;-83
2023/07/20 04:34:00;;;;;;;0.93;0.50;;;13.00;99.90;;;;;;6310465;22;20470;-84
2023/07/20 04:36:25;;;;;;;0.75;0.60;;;13.00;99.90;;;;;;6337913;22;20049;-83
2023/07/20 04:38:51;;;;;;;0.73;0.50;;;13.00;99.90;;;;;;6309894;22;20318;-83
2023/07/20 04:41:17;;;;;;;1.48;0.60;;;13.00;99.90;;;;;;6310576;22;20043;-84
2023/07/20 04:43:44;;;;;;;1.83;0.60;;;13.00;99.90;;;;;;6338309;22;20015;-82
2023/07/20 04:46:12;;;;;;;0.85;0.65;;;13.00;99.90;;;;;;6310328;22;20023;-83
2023/07/20 04:48:41;;;;;;;3.08;0.50;;;13.10;99.90;;;;;;6284343;22;20349;-83
2023/07/20 04:51:07;;;;;;;0.57;0.43;;;13.00;99.90;;;;;;6338131;22;21350;-82
2023/07/20 04:53:32;;;;;;;0.95;0.55;;;13.10;99.90;;;;;;6284858;22;20025;-83
2023/07/20 04:55:59;;;;;;;0.77;0.50;;;13.10;99.90;;;;;;6309680;22;20010;-83
2023/07/20 04:58:24;;;;;;;2.60;0.30;;;13.20;99.90;;;;;;6310049;22;20011;-82
2023/07/20 05:00:51;;;;;;;0.40;0.40;;;13.20;99.90;;;;;;6309915;22;20382;-83
2023/07/20 05:03:17;;;;;;;0.63;0.40;;;13.30;99.90;;;;;;6338003;22;20345;-82
2023/07/20 05:05:43;;;;;;;0.85;0.50;;;13.30;99.90;;;;;;6337592;22;20019;-82
2023/07/20 05:08:09;;;;;;;0.50;0.40;;;13.40;99.90;;;;;;6310508;22;20382;-82
2023/07/20 05:10:35;;;;;;;0.60;0.35;;;13.40;99.90;;;;;;6339851;22;20011;-82
2023/07/20 05:13:01;;;;;;;1.08;0.47;;;13.50;99.90;;;;;;6339331;22;20098;-83
2023/07/20 05:15:26;;;;;;;0.38;0.30;;;13.50;99.90;;;;;;6311445;22;20323;-83
2023/07/20 05:17:52;;;;;;;0.60;0.47;;;13.60;99.90;;;;;;6286345;22;20019;-82
2023/07/20 05:20:18;;;;;;;1.05;0.50;;;13.70;99.90;;;;;;6312256;22;20050;-83
2023/07/20 05:22:44;;;;;;;0.50;0.40;;;13.80;99.90;;;;;;6339686;22;20041;-83
2023/07/20 05:25:11;;;;;;;1.63;0.40;;;14.00;99.90;;;;;;6338986;22;20019;-82
2023/07/20 05:27:40;;;;;;;2.33;0.50;;;14.00;99.90;;;;;;6338959;22;20394;-82
2023/07/20 05:30:07;;;;;;;0.60;0.40;;;14.10;99.90;;;;;;6339248;22;20014;-82
2023/07/20 05:32:33;;;;;;;1.17;0.52;;;14.20;99.90;;;;;;6339721;22;20018;-82
2023/07/20 05:34:59;;;;;;;0.50;0.40;;;14.20;99.90;;;;;;6339556;22;20070;-83
2023/07/20 05:41:10;;;;;;;0.55;0.47;;;14.40;99.90;;;;;;6339314;22;20009;-82
2023/07/20 05:43:35;;;;;;;1.48;0.40;;;14.50;99.90;;;;;;6312003;22;20015;-82
2023/07/20 05:46:01;;;;;;;2.08;0.20;;;14.70;99.90;;;;;;6339980;22;20060;-82
2023/07/20 05:48:27;;;;;;;2.10;0.40;;;14.80;99.90;;;;;;6285802;22;20015;-82
2023/07/20 05:50:53;;;;;;;1.05;0.30;;;14.90;99.90;;;;;;6339279;22;20109;-82
2023/07/20 05:53:19;;;;;;;2.28;0.32;;;15.00;99.90;;;;;;6311947;22;20018;-83
2023/07/20 05:55:51;;;;;;;0.50;0.30;;;15.10;99.90;;;;;;6311593;22;20011;-82
2023/07/20 05:58:16;;;;;;;1.13;0.40;;;15.30;99.90;;;;;;6311894;22;20329;-84
2023/07/20 06:00:42;;;;;;;1.27;0.40;;;15.40;99.90;;;;;;6311230;22;20015;-87
2023/07/20 06:03:09;;;;;;;0.60;0.30;;;15.50;99.90;;;;;;6311210;22;20046;-87
2023/07/20 06:05:34;;;;;;;3.17;0.60;;;15.60;99.90;;;;;;6285576;22;20003;-87
2023/07/20 06:08:01;;;;;;;0.63;0.20;;;15.70;99.90;;;;;;6338864;22;20087;-86
2023/07/20 06:10:26;;;;;;;0.73;0.30;;;15.90;99.90;;;;;;6339002;22;20538;-85
2023/07/20 06:12:52;;;;;;;1.80;0.40;;;16.00;99.90;;;;;;6285446;22;20018;-87
2023/07/20 06:15:28;;;;;;;3.65;0.40;;;16.10;99.90;;;;;;6311335;22;20348;-86
2023/07/20 06:17:56;;;;;;;1.90;0.40;;;16.20;99.90;;;;;;6311825;22;20025;-87
2023/07/20 06:20:22;;;;;;;0.55;0.20;;;16.50;99.90;;;;;;6311502;22;20068;-87
2023/07/20 06:22:48;;;;;;;1.40;0.40;;;16.50;99.90;;;;;;6338718;22;20037;-86
2023/07/20 06:25:14;;;;;;;0.77;0.40;;;16.60;99.90;;;;;;6311125;22;20018;-86
2023/07/20 06:27:39;;;;;;;3.05;0.63;;;16.60;99.90;;;;;;6311406;22;20018;-86
2023/07/20 06:30:06;;;;;;;4.43;0.60;;;16.60;99.90;;;;;;6338699;22;20072;-84
2023/07/20 06:32:32;;;;;;;1.75;0.40;;;16.60;99.90;;;;;;6310587;22;20058;-85
2023/07/20 06:34:58;;;;;;;6.40;0.70;;;16.60;99.90;;;;;;6285644;22;20020;-85
2023/07/20 06:37:24;;;;;;;1.75;0.70;;;16.60;99.90;;;;;;6338711;22;20037;-86
2023/07/20 06:39:49;;;;;;;1.40;0.60;;;16.80;99.90;;;;;;6311032;22;20022;-85
2023/07/20 06:42:15;;;;;;;1.95;0.60;;;16.80;99.90;;;;;;6310551;22;20389;-86
2023/07/20 06:44:41;;;;;;;1.13;0.75;;;16.90;99.90;;;;;;6311035;22;20093;-84
2023/07/20 06:47:12;;;;;;;4.80;0.65;;;17.00;99.90;;;;;;6338821;22;20050;-84
2023/07/20 06:49:37;;;;;;;2.35;0.73;;;17.10;99.90;;;;;;6311332;22;20080;-82
2023/07/20 06:52:03;;;;;;;1.08;0.63;;;17.30;99.90;;;;;;6311855;22;20372;-83
2023/07/20 06:54:29;;;;;;;3.42;0.60;;;17.40;99.90;;;;;;6338993;22;20019;-83
2023/07/20 06:56:55;;;;;;;2.95;0.60;;;17.50;99.90;;;;;;6338585;22;20007;-83
2023/07/20 06:59:21;;;;;;;4.68;0.80;;;17.60;99.90;;;;;;6310785;22;20019;-83
2023/07/20 07:01:47;;;;;;;2.38;0.60;;;17.80;99.90;;;;;;6339168;22;20017;-85
2023/07/20 07:04:12;;;;;;;2.88;0.60;;;17.90;99.90;;;;;;6338930;22;20448;-82
2023/07/20 07:06:38;;;;;;;3.88;0.70;;;18.00;99.90;;;;;;6310798;22;20023;-81
2023/07/20 07:09:05;;;;;;;2.03;0.70;;;18.20;99.90;;;;;;6339340;22;20015;-82
2023/07/20 07:11:31;;;;;;;2.00;0.55;;;18.10;99.90;;;;;;6311327;22;20046;-82
2023/07/20 07:13:57;;;;;;;2.45;0.80;;;17.90;99.90;;;;;;6310772;22;20441;-82
2023/07/20 07:16:22;;;;;;;2.03;0.70;;;18.00;99.90;;;;;;6338355;22;20013;-82
2023/07/20 07:18:50;;;;;;;1.90;0.60;;;17.90;99.90;;;;;;6310998;22;20022;-84
2023/07/20 07:21:16;;;;;;;4.32;1.27;;;17.80;99.90;;;;;;6338244;22;20057;-81
2023/07/20 07:23:43;;;;;;;2.17;0.70;;;17.90;99.90;;;;;;6338277;22;20014;-81
2023/07/20 07:26:09;;;;;;;3.05;0.60;;;18.00;99.90;;;;;;6284731;22;20019;-81
2023/07/20 07:28:36;;;;;;;2.38;0.60;;;18.10;99.90;;;;;;6338675;22;20019;-81
2023/07/20 07:31:05;;;;;;;1.67;0.40;;;18.20;99.90;;;;;;6338368;22;20060;-81
2023/07/20 07:33:31;;;;;;;1.38;0.50;;;18.20;99.90;;;;;;6310829;22;20011;-81
2023/07/20 07:35:57;;;;;;;1.40;0.50;;;18.50;99.90;;;;;;6338359;22;20030;-80
2023/07/20 07:38:23;;;;;;;3.53;0.50;;;18.50;99.90;;;;;;6338172;22;20014;-82
2023/07/20 07:40:49;;;;;;;2.35;0.40;;;18.60;99.90;;;;;;6338698;22;20444;-81
2023/07/20 07:43:15;;;;;;;2.58;0.50;;;18.70;99.90;;;;;;6338505;22;20015;-81
2023/07/20 07:45:41;;;;;;;8.82;0.85;;;18.90;99.90;;;;;;6338594;22;20019;-81
2023/07/20 07:48:07;;;;;;;3.55;0.50;;;18.90;99.90;;;;;;6338109;22;20011;-81
2023/07/20 07:50:33;;;;;;;0.70;0.28;;;18.80;99.90;;;;;;6338390;22;20011;-81
2023/07/20 07:53:00;;;;;;;0.98;0.40;;;18.80;99.90;;;;;;6310749;22;20025;-83
2023/07/20 07:55:28;;;;;;;0.35;0.20;;;19.00;99.90;;;;;;6338380;22;20044;-82
2023/07/20 07:57:54;;;;;;;1.40;0.30;;;19.30;99.90;;;;;;6338599;22;20376;-81
2023/07/20 08:00:20;;;;;;;1.77;0.30;;;19.30;99.90;;;;;;6310350;22;20318;-81
2023/07/20 08:02:47;;;;;;;3.30;0.82;;;19.40;99.90;;;;;;6338455;22;20022;-81
2023/07/20 08:05:14;;;;;;;1.95;0.20;;;19.20;99.90;;;;;;6338620;22;20391;-81
2023/07/20 08:07:40;;;;;;;2.22;0.40;;;19.00;99.90;;;;;;6310077;22;20046;-81
2023/07/20 08:10:06;;;;;;;1.35;0.28;;;18.90;99.90;;;;;;6338576;22;20034;-80
2023/07/20 08:12:32;;;;;;;3.40;0.75;;;18.80;99.90;;;;;;6338054;22;20011;-81
2023/07/20 08:14:58;;;;;;;1.45;0.30;;;18.90;99.90;;;;;;6338502;22;20015;-81
2023/07/20 08:17:24;;;;;;;1.05;0.30;;;19.10;99.90;;;;;;6338292;22;20015;-81
2023/07/20 08:19:50;;;;;;;2.63;0.35;;;19.10;99.90;;;;;;6310189;22;20480;-81
2023/07/20 08:22:15;;;;;;;1.48;0.30;;;19.10;99.90;;;;;;6338308;22;20093;-81
2023/07/20 08:24:43;;;;;;;2.00;0.22;;;19.30;99.90;;;;;;6338071;22;20046;-81
2023/07/20 08:27:09;;;;;;;1.30;0.30;;;19.50;99.90;;;;;;6337932;22;20464;-81
2023/07/20 08:29:35;;;;;;;2.97;0.35;;;19.80;99.90;;;;;;6337860;22;20457;-80
2023/07/20 08:32:01;;;;;;;2.20;0.20;;;19.90;99.90;;;;;;6337938;22;20038;-80
2023/07/20 08:34:27;;;;;;;2.75;0.28;;;19.90;99.90;;;;;;6338384;22;20350;-80
2023/07/20 08:36:53;;;;;;;1.00;0.20;;;19.60;99.90;;;;;;6310491;22;20017;-81
2023/07/20 08:39:18;;;;;;;1.17;0.20;;;19.40;99.90;;;;;;6310275;22;20094;-82
2023/07/20 08:41:44;;;;;;;1.00;0.25;;;19.50;99.90;;;;;;6338710;22;20015;-81
2023/07/20 08:44:11;;;;;;;2.50;0.20;;;19.70;99.90;;;;;;6339751;22;20465;-81
2023/07/20 08:46:40;;;;;;;0.43;0.32;;;19.80;99.90;;;;;;6340075;22;20014;-81
2023/07/20 08:49:07;;;;;;;1.73;0.20;;;20.00;99.90;;;;;;6340047;22;20014;-81
2023/07/20 08:51:35;;;;;;;0.32;0.10;;;20.20;99.90;;;;;;6340155;22;20369;-81
2023/07/20 08:54:02;;;;;;;1.65;0.30;;;20.40;99.90;;;;;;6340245;22;20018;-81
2023/07/20 08:56:29;;;;;;;1.38;0.30;;;20.50;99.90;;;;;;6339603;22;20015;-82
2023/07/20 08:58:56;;;;;;;0.65;0.13;;;20.70;99.90;;;;;;6339581;22;20453;-81
2023/07/20 09:01:22;;;;;;;1.50;0.30;;;20.60;99.90;;;;;;6340009;22;20015;-81
2023/07/20 09:03:48;;;;;;;1.65;0.40;;;20.70;99.90;;;;;;6312018;22;20022;-81
2023/07/20 09:06:14;;;;;;;0.70;0.20;;;20.90;99.90;;;;;;6339612;22;20441;-84
2023/07/20 09:08:40;;;;;;;1.45;0.20;;;21.10;99.90;;;;;;6339342;22;20037;-80
2023/07/20 09:11:07;;;;;;;1.45;0.10;;;21.20;99.90;;;;;;6312093;22;20093;-81
2023/07/20 09:13:34;;;;;;;1.40;0.20;;;21.10;99.90;;;;;;6339883;22;20023;-82
2023/07/20 09:16:00;;;;;;;0.65;0.25;;;21.00;99.80;;;;;;6340057;22;20022;-81
2023/07/20 09:18:31;;;;;;;0.50;0.20;;;21.10;99.70;;;;;;6311944;22;20015;-81
2023/07/20 09:21:05;;;;;;;0.93;0.40;;;21.10;99.90;;;;;;6339694;22;20018;-80
2023/07/20 09:23:41;;;;;;;0.98;0.20;;;21.10;99.60;;;;;;6339578;22;20526;-80
2023/07/20 09:26:12;;;;;;;0.40;0.30;;;21.20;99.90;;;;;;6285776;22;20096;-81
2023/07/20 09:28:55;;;;;;;2.85;0.20;;;21.60;98.00;;;;;;6285839;22;20022;-81
2023/07/20 09:31:23;;;;;;;1.00;0.20;;;21.70;98.60;;;;;;6339778;22;20018;-81
2023/07/20 09:33:52;;;;;;;1.05;0.20;;;22.00;97.70;;;;;;6339013;22;20015;-79
2023/07/20 09:36:18;;;;;;;0.85;0.20;;;21.80;97.40;;;;;;6339525;22;20015;-80
2023/07/20 09:38:44;;;;;;;0.82;0.20;;;21.60;97.30;;;;;;6339495;22;20015;-81
2023/07/20 09:41:15;;;;;;;1.65;0.20;;;21.60;98.80;;;;;;6339512;22;20057;-81
2023/07/20 09:43:41;;;;;;;1.27;0.20;;;21.40;97.30;;;;;;6339129;22;20014;-80
2023/07/20 09:46:07;;;;;;;1.08;0.10;;;21.30;97.40;;;;;;6339252;22;20011;-79
2023/07/20 09:48:33;;;;;;;0.73;0.20;;;21.30;98.90;;;;;;6311395;22;20453;-80
2023/07/20 09:50:59;;;;;;;1.75;0.30;;;21.50;98.10;;;;;;6339051;22;20092;-81
2023/07/20 09:53:26;;;;;;;1.80;0.35;;;21.60;98.90;;;;;;6338304;22;20019;-83
2023/07/20 09:55:53;;;;;;;2.88;0.20;;;21.90;97.70;;;;;;6339348;22;20011;-82
2023/07/20 09:58:19;;;;;;;1.98;0.20;;;21.90;97.40;;;;;;6338754;22;20006;-83
2023/07/20 10:00:51;;;;;;;1.92;0.10;;;21.70;96.40;;;;;;6286042;22;20043;-86
2023/07/20 10:03:22;;;;;;;0.43;0.10;;;21.50;99.10;;;;;;6338723;22;20524;-86
2023/07/20 10:06:03;;;;;;;0.75;0.20;;;21.60;97.90;;;;;;6285679;22;20018;-86
2023/07/20 10:08:30;;;;;;;0.65;0.20;;;21.80;98.30;;;;;;6285289;22;20018;-85
2023/07/20 10:11:00;;;;;;;2.47;0.20;;;22.10;98.10;;;;;;6311290;22;20026;-86
2023/07/20 10:13:28;;;;;;;0.55;0.38;;;22.30;96.60;;;;;;6285603;22;20019;-86
2023/07/20 10:16:09;;;;;;;1.42;0.30;;;22.20;96.80;;;;;;6339047;22;20342;-86
2023/07/20 10:18:48;;;;;;;0.50;0.20;;;22.10;96.90;;;;;;6311182;22;20090;-87
2023/07/20 10:21:17;;;;;;;0.40;0.10;;;21.90;97.20;;;;;;6311344;22;20019;-86
2023/07/20 10:23:43;;;;;;;2.95;0.30;;;22.00;96.10;;;;;;6338738;22;20453;-86
2023/07/20 10:26:10;;;;;;;0.73;0.20;;;21.60;96.40;;;;;;6338914;22;20014;-86
2023/07/20 10:28:36;;;;;;;1.17;0.17;;;21.40;96.70;;;;;;6311170;22;20488;-86
2023/07/20 10:31:05;;;;;;;1.25;0.10;;;21.50;96.70;;;;;;6285523;22;20090;-86
2023/07/20 10:33:31;;;;;;;1.65;0.20;;;21.70;97.70;;;;;;6311036;22;20483;-86
2023/07/20 10:36:02;;;;;;;1.50;0.20;;;21.80;96.70;;;;;;6311017;22;20019;-84
2023/07/20 10:38:51;;;;;;;0.88;0.20;;;22.00;96.80;;;;;;6311030;22;20018;-84
2023/07/20 10:41:24;;;;;;;1.35;0.32;;;22.20;96.10;;;;;;6339265;22;20040;-85
2023/07/20 10:43:50;;;;;;;0.70;0.10;;;22.40;96.00;;;;;;6311112;22;20450;-87
2023/07/20 10:46:36;;;;;;;1.27;0.22;;;22.40;96.00;;;;;;6311131;22;20021;-87
2023/07/20 10:49:07;;;;;;;0.85;0.20;;;22.60;96.40;;;;;;6182958;23;20059;-86
2023/07/20 10:51:44;;;;;;;1.60;0.20;;;23.00;94.80;;;;;;6158232;23;20029;-86
2023/07/20 10:54:15;;;;;;;0.73;0.10;;;23.20;96.60;;;;;;6157379;23;20355;-86
2023/07/20 10:56:58;;;;;;;1.13;0.30;;;23.00;95.50;;;;;;6133260;23;20017;-91
2023/07/20 10:59:24;;;;;;;2.45;0.30;;;22.70;94.60;;;;;;6184377;23;20024;-90
2023/07/20 11:02:01;;;;;;;1.00;0.30;;;22.70;95.60;;;;;;6133874;23;20575;-90
2023/07/20 11:04:47;;;;;;;0.75;0.20;;;22.80;94.30;;;;;;6187305;23;20021;-90
2023/07/20 11:07:43;;;;;;;2.15;0.10;;;22.90;95.40;;;;;;6157240;23;20042;-88
2023/07/20 11:10:18;;;;;;;1.08;0.30;;;23.00;94.90;;;;;;6181608;23;20040;-86
2023/07/20 11:13:32;;;;;;;1.02;0.20;;;23.20;93.40;;;;;;6157439;23;20017;-87
2023/07/20 11:16:00;;;;;;;0.75;0.20;;;23.10;95.20;;;;;;6133466;23;20056;-89
2023/07/20 11:18:30;;;;;;;2.50;0.30;;;23.00;94.60;;;;;;6182946;23;20024;-89
2023/07/20 11:20:59;;;;;;;0.57;0.20;;;22.50;94.50;;;;;;6157513;23;20152;-90
2023/07/20 11:23:31;;;;;;;0.52;0.10;;;22.50;95.80;;;;;;6134150;23;20479;-89
2023/07/20 11:26:48;;;;;;;2.35;0.13;;;22.40;94.60;;;;;;6210399;22;20027;-91
2023/07/20 11:29:28;;;;;;;2.15;0.10;;;22.80;95.30;;;;;;6307356;22;20397;-88
2023/07/20 11:31:53;;;;;;;0.70;0.10;;;22.90;94.30;;;;;;6280057;22;20015;-89
2023/07/20 11:34:21;;;;;;;1.15;0.20;;;23.00;95.50;;;;;;6254090;22;20023;-88
2023/07/20 11:36:49;;;;;;;0.50;0.10;;;23.10;95.90;;;;;;6307246;22;20329;-84
2023/07/20 11:39:19;;;;;;;0.40;0.10;;;22.80;93.90;;;;;;6280892;22;20011;-88
2023/07/20 11:41:53;;;;;;;1.60;0.20;;;23.10;93.50;;;;;;6281146;22;20015;-86
2023/07/20 11:44:20;;;;;;;0.35;0.10;;;22.90;93.30;;;;;;6280510;22;20046;-87
2023/07/20 11:46:50;;;;;;;0.93;0.20;;;23.00;93.80;;;;;;6280003;22;20380;-89
2023/07/20 11:49:16;;;;;;;1.20;0.60;;;22.80;93.10;;;;;;6279458;22;20098;-85
2023/07/20 11:51:41;;;;;;;0.95;0.10;;;22.70;94.40;;;;;;6279421;22;20053;-85
2023/07/20 11:54:08;;;;;;;0.40;0.10;;;23.00;95.00;;;;;;6306930;22;20505;-83
2023/07/20 11:56:34;;;;;;;0.63;0.20;;;23.00;95.00;;;;;;6307710;22;20015;-84
2023/07/20 11:59:02;;;;;;;0.43;0.10;;;23.10;94.10;;;;;;6308830;22;20023;-85
2023/07/20 12:01:32;;;;;;;0.47;0.10;;;23.20;93.50;;;;;;6307755;22;20022;-84
2023/07/20 12:04:04;;;;;;;1.70;0.20;;;23.10;93.70;;;;;;6307105;22;20023;-84
2023/07/20 12:06:30;;;;;;;0.82;0.10;;;23.10;92.40;;;;;;6279507;22;20018;-83
2023/07/20 12:09:00;;;;;;;0.20;0.10;;;23.30;93.10;;;;;;6304427;22;20393;-86
2023/07/20 12:11:35;;;;;;;1.85;0.10;;;23.50;93.10;;;;;;6253914;22;20146;-87
2023/07/20 12:14:02;;;;;;;0.38;0.10;;;23.90;92.90;;;;;;6279414;22;20022;-85
2023/07/20 12:16:28;;;;;;;0.50;0.10;;;23.70;93.90;;;;;;6307858;22;20113;-85
2023/07/20 12:19:00;;;;;;;3.08;0.20;;;23.70;93.90;;;;;;6258022;22;20346;-88
2023/07/20 12:21:26;;;;;;;0.95;0.20;;;23.90;93.20;;;;;;6311655;22;20015;-87
2023/07/20 12:23:52;;;;;;;2.05;0.40;;;24.00;92.90;;;;;;6314302;22;20051;-86
2023/07/20 12:26:20;;;;;;;1.38;0.10;;;24.30;92.50;;;;;;6282200;22;20019;-88
2023/07/20 12:28:46;;;;;;;0.95;0.20;;;24.10;92.10;;;;;;6317305;22;20023;-89
2023/07/20 12:31:13;;;;;;;0.95;0.30;;;24.30;91.90;;;;;;6343069;22;20030;-87
2023/07/20 12:33:39;;;;;;;1.08;0.05;;;24.40;90.70;;;;;;6316139;22;20018;-88
2023/07/20 12:36:05;;;;;;;0.40;0.10;;;23.90;91.40;;;;;;6315455;22;20018;-85
2023/07/20 12:38:31;;;;;;;1.45;0.35;;;23.80;91.80;;;;;;6312668;22;20036;-86
2023/07/20 12:41:00;;;;;;;0.20;0.10;;;24.00;92.60;;;;;;6339765;22;20043;-84
2023/07/20 12:43:26;;;;;;;1.10;0.10;;;23.50;92.20;;;;;;6312399;22;20477;-87
2023/07/20 12:45:52;;;;;;;1.40;0.20;;;23.50;93.30;;;;;;6340249;22;20015;-85
2023/07/20 12:48:18;;;;;;;0.57;0.20;;;23.70;92.40;;;;;;6312142;22;20015;-86
2023/07/20 12:50:44;;;;;;;0.30;0.10;;;23.80;91.10;;;;;;6312443;22;20080;-86
2023/07/20 12:53:10;;;;;;;1.40;0.20;;;23.50;91.70;;;;;;6312353;22;20344;-87
2023/07/20 12:55:35;;;;;;;0.85;0.20;;;23.10;92.10;;;;;;6339293;22;20015;-86